Time;durP1;ratioP1;P1;durP2;ratioP2;P2;SDS_P1;SDS_P2;PMS_P1;PMS_P2;Temp;Humidity;BMP_temperature;BMP_pressure;BME280_temperature;BME280_humidity;BME280_pressure;Samples;Min_cycle;Max_cycle;Signal;HPM_P1;HPM_P2
2023/08/25 00:02:03;;;;;;;0.10;0.10;;;;;;;19.70;100.00;98713.91;5093829;28;20217;-56
2023/08/25 00:04:50;;;;;;;0.10;0.10;;;;;;;19.66;100.00;98708.00;5093876;28;20313;-56
2023/08/25 00:07:37;;;;;;;0.10;0.10;;;;;;;19.64;100.00;98709.19;5095080;28;20695;-56
2023/08/25 00:10:26;;;;;;;0.10;0.10;;;;;;;19.68;100.00;98697.91;5094658;28;20781;-56
2023/08/25 00:13:13;;;;;;;0.10;0.10;;;;;;;19.59;100.00;98698.94;5094789;28;20271;-56
2023/08/25 00:16:00;;;;;;;0.10;0.10;;;;;;;19.68;100.00;98700.59;5093617;28;20194;-56
2023/08/25 00:18:48;;;;;;;0.10;0.10;;;;;;;19.64;100.00;98698.44;5094927;28;20198;-55
2023/08/25 00:21:35;;;;;;;0.10;0.10;;;;;;;19.47;100.00;98696.69;5094593;28;20203;-56
2023/08/25 00:24:22;;;;;;;0.10;0.10;;;;;;;19.46;100.00;98693.16;5094656;28;20206;-56
2023/08/25 00:27:11;;;;;;;0.10;0.10;;;;;;;19.49;100.00;98694.69;5094708;28;20195;-56
2023/08/25 00:29:58;;;;;;;0.10;0.10;;;;;;;19.50;100.00;98686.47;5092758;28;20329;-56
2023/08/25 00:32:45;;;;;;;0.10;0.10;;;;;;;19.26;100.00;98681.91;5093619;28;20198;-56
2023/08/25 00:35:32;;;;;;;0.10;0.10;;;;;;;19.31;100.00;98689.47;5094438;28;20271;-56
2023/08/25 00:38:19;;;;;;;0.10;0.10;;;;;;;19.32;100.00;98685.78;5093082;28;20249;-56
2023/08/25 00:41:07;;;;;;;0.10;0.10;;;;;;;19.37;100.00;98681.56;5094363;28;20194;-56
2023/08/25 00:43:55;;;;;;;0.10;0.10;;;;;;;19.48;100.00;98684.94;5094429;28;20198;-56
2023/08/25 00:46:43;;;;;;;0.10;0.10;;;;;;;19.42;100.00;98681.94;5091961;28;20202;-56
2023/08/25 00:49:31;;;;;;;0.10;0.10;;;;;;;19.24;100.00;98680.38;5093061;28;20210;-56
2023/08/25 00:52:19;;;;;;;0.10;0.10;;;;;;;19.18;100.00;98684.56;5093463;28;20674;-56
2023/08/25 00:55:07;;;;;;;0.10;0.10;;;;;;;19.20;100.00;98690.59;5094120;28;20260;-56
2023/08/25 00:57:55;;;;;;;0.00;0.00;;;;;;;19.48;100.00;98685.78;5094106;28;20214;-56
2023/08/25 01:00:45;;;;;;;0.10;0.10;;;;;;;19.27;100.00;98677.38;5091771;28;20194;-56
2023/08/25 01:03:32;;;;;;;0.10;0.10;;;;;;;19.25;100.00;98674.84;5093901;28;20194;-56
2023/08/25 01:06:20;;;;;;;0.10;0.10;;;;;;;19.34;100.00;98684.59;5093893;28;20229;-56
2023/08/25 01:09:08;;;;;;;0.10;0.10;;;;;;;19.45;100.00;98678.06;5093969;28;20256;-56
2023/08/25 01:12:04;;;;;;;0.10;0.10;;;;;;;19.62;100.00;98687.00;5093795;28;20283;-56
2023/08/25 01:14:58;;;;;;;0.10;0.10;;;;;;;19.68;100.00;98679.09;5093757;28;20246;-57
2023/08/25 01:17:55;;;;;;;0.00;0.00;;;;;;;19.78;100.00;98665.50;5093520;28;20331;-56
2023/08/25 01:20:42;;;;;;;0.10;0.10;;;;;;;19.69;100.00;98670.06;5092647;28;20187;-56
2023/08/25 01:23:36;;;;;;;0.10;0.10;;;;;;;19.85;100.00;98671.03;5092605;28;20191;-56
2023/08/25 01:26:26;;;;;;;0.10;0.10;;;;;;;19.89;100.00;98678.63;5093664;28;20194;-56
2023/08/25 01:29:13;;;;;;;0.10;0.10;;;;;;;19.91;100.00;98686.50;5093080;28;20199;-56
2023/08/25 01:31:59;;;;;;;0.10;0.10;;;;;;;19.79;100.00;98694.06;5091094;28;20234;-56
2023/08/25 01:34:46;;;;;;;0.10;0.10;;;;;;;19.73;100.00;98692.06;5092272;28;20194;-56
2023/08/25 01:37:39;;;;;;;0.10;0.10;;;;;;;19.82;100.00;98684.84;5093148;28;20777;-56
2023/08/25 01:40:32;;;;;;;0.10;0.10;;;;;;;19.92;100.00;98680.13;5093343;28;20237;-56
2023/08/25 01:43:23;;;;;;;0.10;0.10;;;;;;;19.82;100.00;98674.09;5093351;28;20195;-56
2023/08/25 01:46:11;;;;;;;0.10;0.10;;;;;;;19.82;100.00;98669.53;5091883;28;20198;-56
2023/08/25 01:49:00;;;;;;;0.10;0.10;;;;;;;19.75;100.00;98665.84;5092855;28;20213;-56
2023/08/25 01:51:47;;;;;;;0.10;0.10;;;;;;;19.72;100.00;98669.72;5091780;28;20218;-56
2023/08/25 01:54:34;;;;;;;0.10;0.10;;;;;;;19.79;100.00;98675.25;5092148;28;20190;-56
2023/08/25 01:57:21;;;;;;;0.10;0.10;;;;;;;19.79;100.00;98675.25;5092890;28;20195;-56
2023/08/25 02:00:11;;;;;;;0.10;0.10;;;;;;;19.63;100.00;98678.78;5090681;28;20209;-57
2023/08/25 02:03:01;;;;;;;0.10;0.10;;;;;;;19.57;100.00;98678.59;5092912;28;20248;-56
2023/08/25 02:05:48;;;;;;;0.07;0.07;;;;;;;19.62;100.00;98682.47;5092702;28;20317;-56
2023/08/25 02:08:35;;;;;;;0.10;0.10;;;;;;;19.67;100.00;98684.66;5091973;28;20199;-56
2023/08/25 02:11:22;;;;;;;0.10;0.10;;;;;;;19.53;100.00;98696.03;5091787;28;20219;-56
2023/08/25 02:14:09;;;;;;;0.10;0.10;;;;;;;19.39;100.00;98689.47;5092653;28;20190;-56
2023/08/25 02:16:57;;;;;;;0.00;0.00;;;;;;;19.31;100.00;98700.22;5091520;28;20202;-56
2023/08/25 02:19:45;;;;;;;0.07;0.07;;;;;;;19.39;100.00;98695.66;5092878;28;20264;-56
2023/08/25 02:22:31;;;;;;;0.10;0.10;;;;;;;19.46;100.00;98698.53;5092594;28;20226;-56
2023/08/25 02:25:18;;;;;;;0.10;0.10;;;;;;;19.52;100.00;98703.25;5091885;28;20194;-56
2023/08/25 02:28:05;;;;;;;0.10;0.10;;;;;;;19.54;100.00;98717.38;5091715;28;20203;-56
2023/08/25 02:30:53;;;;;;;0.10;0.10;;;;;;;19.59;100.00;98717.75;5090891;28;20223;-56
2023/08/25 02:33:41;;;;;;;0.10;0.10;;;;;;;19.38;100.00;98715.47;5091750;28;20214;-56
2023/08/25 02:36:28;;;;;;;0.10;0.10;;;;;;;19.35;100.00;98710.44;5092634;28;20194;-56
2023/08/25 02:39:15;;;;;;;0.00;0.00;;;;;;;19.21;100.00;98715.63;5091564;28;20205;-56
2023/08/25 02:42:02;;;;;;;0.10;0.10;;;;;;;19.33;100.00;98714.31;5092617;28;20253;-56
2023/08/25 02:44:51;;;;;;;0.10;0.10;;;;;;;19.50;100.00;98720.56;5091568;28;20675;-56
2023/08/25 02:47:38;;;;;;;0.03;0.03;;;;;;;19.52;100.00;98735.50;5091496;28;20222;-56
2023/08/25 02:50:28;;;;;;;0.10;0.10;;;;;;;19.33;100.00;98728.56;5092248;28;20284;-56
2023/08/25 02:53:15;;;;;;;0.00;0.00;;;;;;;19.35;100.00;98720.34;5092566;28;20202;-56
2023/08/25 02:56:03;;;;;;;0.10;0.10;;;;;;;19.24;100.00;98720.66;5092367;28;20260;-56
2023/08/25 02:58:50;;;;;;;0.10;0.10;;;;;;;19.29;100.00;98712.94;5092443;28;20676;-56
2023/08/25 03:01:37;;;;;;;0.10;0.10;;;;;;;19.45;100.00;98719.19;5091091;28;20675;-56
2023/08/25 03:04:23;;;;;;;0.10;0.10;;;;;;;19.27;100.00;98713.09;5092261;28;20191;-56
2023/08/25 03:07:12;;;;;;;0.10;0.10;;;;;;;19.10;100.00;98704.16;5091390;28;20202;-56
2023/08/25 03:09:59;;;;;;;0.00;0.00;;;;;;;19.24;100.00;98709.94;5091265;28;20199;-56
2023/08/25 03:12:47;;;;;;;0.10;0.10;;;;;;;19.38;100.00;98703.91;5091389;28;20195;-56
2023/08/25 03:15:34;;;;;;;0.07;0.07;;;;;;;19.31;100.00;98719.84;5092076;28;20198;-56
2023/08/25 03:18:21;;;;;;;0.10;0.10;;;;;;;19.40;100.00;98724.25;5095005;28;20191;-56
2023/08/25 03:21:08;;;;;;;0.00;0.00;;;;;;;19.33;100.00;98707.09;5095849;28;20555;-56
2023/08/25 03:23:56;;;;;;;0.10;0.10;;;;;;;19.17;100.00;98689.09;5094911;28;20225;-56
2023/08/25 03:26:44;;;;;;;0.10;0.10;;;;;;;19.15;100.00;98687.59;5095862;28;20309;-56
2023/08/25 03:29:31;;;;;;;0.10;0.10;;;;;;;19.31;100.00;98695.69;5095717;28;20244;-56
2023/08/25 03:32:18;;;;;;;0.10;0.10;;;;;;;19.33;100.00;98701.72;5093911;28;20219;-56
2023/08/25 03:35:06;;;;;;;0.00;0.00;;;;;;;19.36;100.00;98713.97;5094694;28;20198;-56
2023/08/25 03:37:53;;;;;;;0.07;0.07;;;;;;;19.36;100.00;98713.97;5094348;28;20230;-56
2023/08/25 03:40:43;;;;;;;0.00;0.00;;;;;;;19.55;100.00;98704.78;5095647;28;20190;-56
2023/08/25 03:43:30;;;;;;;0.10;0.10;;;;;;;19.65;100.00;98706.31;5094124;28;20195;-56
2023/08/25 03:46:17;;;;;;;0.10;0.10;;;;;;;19.66;100.00;98709.84;5094165;28;20213;-56
2023/08/25 03:49:04;;;;;;;0.10;0.10;;;;;;;19.48;100.00;98709.13;5094250;28;20194;-56
2023/08/25 03:51:51;;;;;;;0.10;0.10;;;;;;;19.51;100.00;98706.13;5095166;28;20214;-56
2023/08/25 03:54:38;;;;;;;0.10;0.10;;;;;;;19.58;100.00;98688.34;5094343;28;20321;-56
2023/08/25 03:57:27;;;;;;;0.10;0.10;;;;;;;19.64;100.00;98696.59;5094207;28;20195;-56
2023/08/25 04:00:14;;;;;;;0.00;0.00;;;;;;;19.79;100.00;98694.06;5092976;28;20727;-56
2023/08/25 04:03:03;;;;;;;0.10;0.10;;;;;;;19.76;100.00;98683.66;5095250;28;20183;-56
2023/08/25 04:05:50;;;;;;;0.10;0.10;;;;;;;19.84;100.00;98674.75;5094059;28;20210;-56
2023/08/25 04:08:37;;;;;;;0.00;0.00;;;;;;;19.91;100.00;98665.84;5094941;28;20294;-56
2023/08/25 04:11:24;;;;;;;0.10;0.10;;;;;;;19.95;100.00;98650.19;5093855;28;20333;-56
2023/08/25 04:14:12;;;;;;;0.00;0.00;;;;;;;20.01;100.00;98646.84;5095068;28;20668;-56
2023/08/25 04:17:01;;;;;;;0.10;0.10;;;;;;;19.91;100.00;98638.97;5092425;28;20199;-56
2023/08/25 04:19:48;;;;;;;0.10;0.10;;;;;;;20.01;100.00;98641.47;5093822;28;20203;-56
2023/08/25 04:22:35;;;;;;;0.10;0.10;;;;;;;20.02;100.00;98633.22;5093845;28;20276;-56
2023/08/25 04:25:22;;;;;;;0.10;0.10;;;;;;;19.91;100.00;98632.75;5093538;28;20241;-56
2023/08/25 04:28:12;;;;;;;0.10;0.10;;;;;;;19.88;100.00;98631.25;5093044;28;20325;-57
2023/08/25 04:31:00;;;;;;;0.10;0.10;;;;;;;19.85;100.00;98631.56;5092189;28;20237;-56
2023/08/25 04:33:52;;;;;;;0.00;0.00;;;;;;;19.84;100.00;98627.19;5093249;28;20190;-56
2023/08/25 04:36:39;;;;;;;0.10;0.10;;;;;;;19.87;100.00;98626.84;5093256;28;20265;-56
2023/08/25 04:39:27;;;;;;;0.10;0.10;;;;;;;19.86;100.00;98619.81;5093406;28;20199;-56
2023/08/25 04:42:14;;;;;;;0.10;0.10;;;;;;;19.58;100.00;98611.25;5094235;28;20199;-56
2023/08/25 04:45:03;;;;;;;0.10;0.10;;;;;;;19.71;100.00;98619.66;5093101;28;20261;-57
2023/08/25 04:47:52;;;;;;;0.10;0.10;;;;;;;19.83;100.00;98635.44;5093241;28;20195;-56
2023/08/25 04:50:42;;;;;;;0.10;0.10;;;;;;;19.86;100.00;98621.66;5093170;28;20206;-56
2023/08/25 04:53:29;;;;;;;0.10;0.10;;;;;;;19.80;100.00;98623.19;5093800;28;20218;-56
2023/08/25 04:56:17;;;;;;;0.00;0.00;;;;;;;19.90;100.00;98629.22;5093179;28;20277;-56
2023/08/25 04:59:05;;;;;;;0.10;0.10;;;;;;;20.10;100.00;98647.66;5092721;28;20207;-56
2023/08/25 05:01:52;;;;;;;0.10;0.10;;;;;;;19.87;100.00;98640.28;5091817;28;20191;-56
2023/08/25 05:04:41;;;;;;;0.10;0.10;;;;;;;19.92;100.00;98634.41;5092924;28;20203;-57
2023/08/25 05:07:28;;;;;;;0.10;0.10;;;;;;;19.96;100.00;98652.72;5092802;28;20209;-56
2023/08/25 05:10:16;;;;;;;0.10;0.10;;;;;;;19.94;100.00;98656.59;5093762;28;20364;-56
2023/08/25 05:13:04;;;;;;;0.10;0.10;;;;;;;19.78;100.00;98643.16;5092511;28;20284;-56
2023/08/25 05:15:51;;;;;;;0.10;0.10;;;;;;;20.09;100.00;98641.44;5091405;28;20257;-56
2023/08/25 05:18:53;;;;;;;0.10;0.10;;;;;;;20.02;100.00;98652.03;5092636;28;20317;-56
2023/08/25 05:21:41;;;;;;;0.10;0.10;;;;;;;20.03;100.00;98655.56;5093246;28;20241;-57
2023/08/25 05:24:29;;;;;;;0.10;0.10;;;;;;;20.02;100.00;98659.28;5093187;28;20218;-57
2023/08/25 05:27:16;;;;;;;0.10;0.10;;;;;;;19.80;100.00;98665.34;5092574;28;20198;-56
2023/08/25 05:30:03;;;;;;;0.10;0.10;;;;;;;19.92;100.00;98677.44;5091003;28;20201;-56
2023/08/25 05:32:52;;;;;;;0.10;0.10;;;;;;;19.87;100.00;98687.84;5092197;28;20222;-57
2023/08/25 05:35:50;;;;;;;0.10;0.10;;;;;;;19.97;100.00;98685.81;5092345;28;20674;-56
2023/08/25 05:38:39;;;;;;;0.10;0.10;;;;;;;20.17;100.00;98691.66;5091540;28;20229;-56
2023/08/25 05:41:25;;;;;;;0.10;0.10;;;;;;;20.09;100.00;98680.94;5092164;28;20230;-56
2023/08/25 05:44:12;;;;;;;0.10;0.10;;;;;;;20.11;100.00;98674.38;5093255;28;20183;-56
2023/08/25 05:46:59;;;;;;;0.10;0.10;;;;;;;20.18;100.00;98671.84;5090790;28;20320;-56
2023/08/25 05:49:46;;;;;;;0.10;0.10;;;;;;;20.36;100.00;98671.63;5093163;28;20205;-56
2023/08/25 05:52:35;;;;;;;0.10;0.10;;;;;;;20.36;100.00;98666.25;5092962;28;20313;-56
2023/08/25 05:55:23;;;;;;;0.10;0.10;;;;;;;20.48;100.00;98668.44;5091968;28;20292;-57
2023/08/25 05:58:11;;;;;;;0.00;0.00;;;;;;;20.45;100.00;98660.69;5092979;28;20386;-57
2023/08/25 06:00:58;;;;;;;0.10;0.10;;;;;;;20.48;100.00;98656.84;5091812;28;20194;-57
2023/08/25 06:03:45;;;;;;;0.10;0.10;;;;;;;20.33;100.00;98661.22;5093170;28;20314;-57
2023/08/25 06:06:33;;;;;;;0.10;0.10;;;;;;;20.56;100.00;98706.09;5092876;28;20214;-56
2023/08/25 06:09:21;;;;;;;0.10;0.10;;;;;;;20.60;100.00;98770.31;5092963;28;20266;-56
2023/08/25 06:12:11;;;;;;;0.00;0.00;;;;;;;20.56;100.00;98800.28;5092869;28;20711;-56
2023/08/25 06:14:57;;;;;;;0.10;0.10;;;;;;;20.41;100.00;98791.16;5091572;28;20820;-56
2023/08/25 06:17:44;;;;;;;0.10;0.10;;;;;;;20.28;100.00;98772.03;5092934;28;20186;-57
2023/08/25 06:20:32;;;;;;;0.10;0.10;;;;;;;20.35;100.00;98742.56;5092769;28;20195;-57
2023/08/25 06:23:19;;;;;;;0.10;0.10;;;;;;;20.21;100.00;98704.63;5092479;28;20632;-57
2023/08/25 06:26:07;;;;;;;0.10;0.10;;;;;;;20.37;100.00;98690.31;5092445;28;20213;-57
2023/08/25 06:28:56;;;;;;;0.10;0.10;;;;;;;20.36;100.00;98677.00;5092818;28;20194;-58
2023/08/25 06:31:43;;;;;;;0.03;0.03;;;;;;;20.38;100.00;98701.91;5091330;28;20257;-58
2023/08/25 06:34:30;;;;;;;0.10;0.10;;;;;;;20.38;100.00;98723.44;5092603;28;20194;-57
2023/08/25 06:37:17;;;;;;;0.10;0.10;;;;;;;20.35;100.00;98748.78;5092209;28;20273;-57
2023/08/25 06:40:07;;;;;;;0.00;0.00;;;;;;;20.23;100.00;98729.47;5092605;28;20333;-58
2023/08/25 06:42:54;;;;;;;0.10;0.10;;;;;;;20.34;100.00;98720.22;5092579;28;20198;-57
2023/08/25 06:45:42;;;;;;;0.10;0.10;;;;;;;20.21;100.00;98717.22;5091237;28;20202;-57
2023/08/25 06:48:29;;;;;;;0.00;0.00;;;;;;;20.32;100.00;98724.09;5092257;28;20206;-57
2023/08/25 06:51:16;;;;;;;0.10;0.10;;;;;;;20.26;100.00;98736.38;5095871;28;20285;-57
2023/08/25 06:54:03;;;;;;;0.10;0.10;;;;;;;20.48;100.00;98733.03;5096006;28;20261;-57
2023/08/25 06:56:53;;;;;;;0.10;0.10;;;;;;;20.51;100.00;98734.50;5096457;28;20210;-57
2023/08/25 06:59:40;;;;;;;0.10;0.10;;;;;;;20.63;100.00;98741.22;5096170;28;20205;-57
2023/08/25 07:02:28;;;;;;;0.10;0.10;;;;;;;20.70;100.00;98744.06;5096492;28;20263;-57
2023/08/25 07:05:15;;;;;;;0.10;0.10;;;;;;;20.75;100.00;98726.38;5096315;28;20217;-57
2023/08/25 07:08:02;;;;;;;0.10;0.10;;;;;;;20.80;100.00;98725.84;5096201;28;20674;-57
2023/08/25 07:10:49;;;;;;;0.10;0.10;;;;;;;20.88;100.00;98720.44;5095402;28;20198;-57
2023/08/25 07:13:36;;;;;;;0.00;0.00;;;;;;;20.96;100.00;98715.03;5095880;28;20261;-57
2023/08/25 07:16:24;;;;;;;0.10;0.10;;;;;;;20.90;100.00;98704.09;5094385;28;20195;-58
2023/08/25 07:19:14;;;;;;;0.00;0.00;;;;;;;21.02;100.00;98697.31;5096044;28;20199;-57
2023/08/25 07:22:02;;;;;;;0.10;0.10;;;;;;;21.14;100.00;98675.22;5095777;28;20241;-57
2023/08/25 07:24:50;;;;;;;0.10;0.10;;;;;;;21.09;100.00;98661.41;5095769;28;20195;-57
2023/08/25 07:27:37;;;;;;;0.00;0.00;;;;;;;21.08;100.00;98683.16;5095486;28;20194;-57
2023/08/25 07:30:24;;;;;;;0.10;0.10;;;;;;;21.10;100.00;98668.47;5094576;28;20199;-57
2023/08/25 07:33:11;;;;;;;0.10;0.10;;;;;;;20.89;100.00;98675.50;5095286;28;20256;-57
2023/08/25 07:36:00;;;;;;;0.10;0.10;;;;;;;20.93;100.00;98680.34;5095681;28;20310;-57
2023/08/25 07:38:47;;;;;;;0.00;0.00;;;;;;;20.94;100.00;98682.06;5094138;28;20226;-57
2023/08/25 07:41:34;;;;;;;0.10;0.10;;;;;;;20.92;100.00;98684.06;5095347;28;20195;-57
2023/08/25 07:44:22;;;;;;;0.10;0.10;;;;;;;20.92;100.00;98692.13;5094234;28;20264;-57
2023/08/25 07:47:08;;;;;;;0.07;0.07;;;;;;;20.98;100.00;98671.75;5094617;28;20674;-57
2023/08/25 07:49:55;;;;;;;0.10;0.10;;;;;;;21.10;100.00;98684.63;5095170;28;20187;-57
2023/08/25 07:52:44;;;;;;;0.10;0.10;;;;;;;20.91;100.00;98692.31;5095274;28;20191;-57
2023/08/25 07:55:32;;;;;;;0.10;0.10;;;;;;;21.05;100.00;98695.13;5095329;28;20206;-57
2023/08/25 07:58:19;;;;;;;0.05;0.05;;;;;;;21.30;100.00;98690.44;5095122;28;20194;-57
2023/08/25 08:01:07;;;;;;;0.10;0.10;;;;;;;21.39;100.00;98697.47;5093701;28;20198;-57
2023/08/25 08:03:54;;;;;;;0.10;0.10;;;;;;;21.56;100.00;98697.34;5095235;28;20680;-57
2023/08/25 08:06:41;;;;;;;0.10;0.10;;;;;;;21.66;100.00;98697.97;5094818;28;20194;-57
2023/08/25 08:09:31;;;;;;;0.08;0.08;;;;;;;21.42;100.00;98698.94;5095172;28;20190;-57
2023/08/25 08:12:18;;;;;;;0.00;0.00;;;;;;;21.51;100.00;98699.75;5095040;28;20265;-57
2023/08/25 08:15:06;;;;;;;0.10;0.10;;;;;;;21.72;100.00;98691.84;5093042;28;20226;-57
2023/08/25 08:17:53;;;;;;;0.10;0.10;;;;;;;22.51;100.00;98681.50;5094881;28;20202;-57
2023/08/25 08:20:42;;;;;;;0.10;0.10;;;;;;;22.49;100.00;98660.09;5094958;28;20268;-57
2023/08/25 08:23:28;;;;;;;0.10;0.10;;;;;;;22.47;100.00;98655.91;5094738;28;20288;-57
2023/08/25 08:26:17;;;;;;;0.10;0.10;;;;;;;22.67;100.00;98645.38;5094777;28;20186;-57
2023/08/25 08:29:04;;;;;;;0.10;0.10;;;;;;;22.56;100.00;98644.81;5094631;28;20190;-57
2023/08/25 08:31:51;;;;;;;0.00;0.00;;;;;;;22.35;100.00;98631.25;5093181;28;20194;-57
2023/08/25 08:34:38;;;;;;;0.00;0.00;;;;;;;22.56;100.00;98627.78;5094351;28;20282;-57
2023/08/25 08:37:25;;;;;;;0.10;0.10;;;;;;;22.81;100.00;98626.44;5094257;28;20229;-57
2023/08/25 08:40:12;;;;;;;0.00;0.00;;;;;;;22.76;100.00;98626.16;5094422;28;20205;-57
2023/08/25 08:43:02;;;;;;;0.10;0.10;;;;;;;22.94;100.00;98616.84;5094122;28;20264;-57
2023/08/25 08:45:52;;;;;;;0.10;0.10;;;;;;;22.93;100.00;98605.22;5092961;28;20223;-57
2023/08/25 08:48:38;;;;;;;0.10;0.10;;;;;;;23.43;100.00;98593.47;5094202;28;20203;-57
2023/08/25 08:51:26;;;;;;;0.05;0.05;;;;;;;23.66;100.00;98584.34;5094232;28;20198;-57
2023/08/25 08:54:14;;;;;;;0.10;0.10;;;;;;;24.02;100.00;98600.41;5093844;28;20218;-57
2023/08/25 08:57:01;;;;;;;0.05;0.05;;;;;;;23.71;100.00;98573.75;5093987;28;20267;-57
2023/08/25 08:59:51;;;;;;;0.00;0.00;;;;;;;24.26;100.00;98559.34;5092727;28;20190;-57
2023/08/25 09:02:41;;;;;;;0.10;0.10;;;;;;;24.45;100.00;98549.66;5093861;28;20678;-57
2023/08/25 09:05:29;;;;;;;0.03;0.03;;;;;;;24.55;100.00;98539.28;5093415;28;20214;-57
2023/08/25 09:08:17;;;;;;;0.10;0.10;;;;;;;24.58;100.00;98537.22;5093844;28;20667;-57
2023/08/25 09:11:05;;;;;;;0.03;0.03;;;;;;;24.75;100.00;98533.09;5093895;28;20186;-56
2023/08/25 09:13:54;;;;;;;0.10;0.10;;;;;;;25.09;100.00;98529.44;5093102;28;20733;-57
2023/08/25 09:16:43;;;;;;;0.10;0.10;;;;;;;25.10;100.00;98521.13;5092492;28;20202;-57
2023/08/25 09:19:30;;;;;;;0.00;0.00;;;;;;;25.26;100.00;98505.47;5093716;28;20309;-57
2023/08/25 09:22:19;;;;;;;0.10;0.10;;;;;;;25.32;100.00;98515.50;5093728;28;20261;-57
2023/08/25 09:25:06;;;;;;;0.10;0.10;;;;;;;24.89;100.00;98499.56;5093371;28;20229;-57
2023/08/25 09:27:58;;;;;;;0.10;0.10;;;;;;;25.39;100.00;98510.91;5093427;28;20187;-57
2023/08/25 09:30:45;;;;;;;0.00;0.00;;;;;;;25.40;100.00;98510.69;5092408;28;20198;-56
2023/08/25 09:33:34;;;;;;;0.10;0.10;;;;;;;24.36;100.00;98523.81;5093385;28;20240;-57
2023/08/25 09:36:21;;;;;;;0.10;0.10;;;;;;;24.21;100.00;98509.53;5093291;28;20211;-56
2023/08/25 09:39:07;;;;;;;0.10;0.10;;;;;;;23.81;100.00;98508.50;5093362;28;20202;-57
2023/08/25 09:41:54;;;;;;;0.10;0.10;;;;;;;24.25;100.00;98513.53;5093182;28;20214;-57
2023/08/25 09:44:41;;;;;;;0.10;0.10;;;;;;;24.03;100.00;98539.00;5092845;28;20191;-57
2023/08/25 09:47:29;;;;;;;0.10;0.10;;;;;;;23.70;100.00;98531.53;5092937;28;20317;-57
2023/08/25 09:50:19;;;;;;;0.00;0.00;;;;;;;23.63;100.00;98536.88;5093299;28;20241;-57
2023/08/25 09:53:07;;;;;;;0.10;0.10;;;;;;;23.50;100.00;98535.91;5092915;28;20199;-57
2023/08/25 09:56:01;;;;;;;0.10;0.10;;;;;;;23.26;100.00;98523.63;5092708;28;20218;-56
2023/08/25 09:58:49;;;;;;;0.10;0.10;;;;;;;23.47;100.00;98530.91;5092948;28;20195;-57
2023/08/25 10:01:38;;;;;;;0.10;0.10;;;;;;;23.91;100.00;98514.38;5091716;28;20219;-56
2023/08/25 10:04:25;;;;;;;0.10;0.10;;;;;;;23.89;100.00;98517.28;5093025;28;20191;-57
2023/08/25 10:07:13;;;;;;;0.10;0.10;;;;;;;24.37;100.00;98500.28;5092848;28;20241;-57
2023/08/25 10:10:02;;;;;;;0.10;0.10;;;;;;;24.55;100.00;98497.84;5093063;28;20202;-57
2023/08/25 10:12:50;;;;;;;0.10;0.10;;;;;;;24.39;100.00;98485.50;5092844;28;20261;-57
2023/08/25 10:15:39;;;;;;;0.00;0.00;;;;;;;24.10;100.00;98478.47;5091427;28;20222;-57
2023/08/25 10:18:27;;;;;;;0.08;0.08;;;;;;;24.32;100.00;98471.13;5092864;28;20350;-57
2023/08/25 10:21:19;;;;;;;0.10;0.10;;;;;;;24.12;100.00;98470.97;5092772;28;20198;-57
2023/08/25 10:24:09;;;;;;;0.10;0.10;;;;;;;24.06;100.00;98474.50;5092860;28;20199;-57
2023/08/25 10:26:56;;;;;;;0.10;0.10;;;;;;;24.07;100.00;98472.63;5096971;28;20194;-57
2023/08/25 10:29:43;;;;;;;0.10;0.10;;;;;;;24.15;100.00;98461.66;5094981;28;20237;-57
2023/08/25 10:32:48;;;;;;;0.10;0.10;;;;;;;24.46;100.00;98464.69;5096841;28;20205;-57
2023/08/25 10:35:44;;;;;;;0.10;0.10;;;;;;;25.57;100.00;98459.53;5096570;28;20225;-57
2023/08/25 10:38:39;;;;;;;0.10;0.10;;;;;;;26.56;100.00;98446.72;5096474;28;20773;-57
2023/08/25 10:41:28;;;;;;;0.10;0.10;;;;;;;28.04;100.00;98436.84;5096971;28;20197;-57
2023/08/25 10:44:21;;;;;;;0.10;0.10;;;;;;;29.01;100.00;98423.16;5096711;28;20194;-57
2023/08/25 10:47:08;;;;;;;0.00;0.00;;;;;;;30.40;100.00;98412.31;5096251;28;20187;-58
2023/08/25 10:49:56;;;;;;;0.00;0.00;;;;;;;31.94;100.00;98422.78;5096588;28;20199;-58
2023/08/25 10:52:44;;;;;;;0.00;0.00;;;;;;;29.13;100.00;98428.59;5096621;28;20240;-57
2023/08/25 10:55:32;;;;;;;0.10;0.10;;;;;;;27.39;100.00;98439.19;5096131;28;20261;-57
2023/08/25 10:58:20;;;;;;;0.03;0.03;;;;;;;27.98;100.00;98432.28;5096518;28;20183;-57
2023/08/25 11:01:07;;;;;;;0.00;0.00;;;;;;;30.30;100.00;98433.97;5095175;28;20194;-57
2023/08/25 11:04:06;;;;;;;0.00;0.00;;;;;;;29.95;100.00;98434.91;5096186;28;20297;-57
2023/08/25 11:06:54;;;;;;;0.00;0.00;;;;;;;31.52;100.00;98436.16;5096340;28;20229;-58
2023/08/25 11:09:41;;;;;;;0.00;0.00;;;;;;;34.19;92.90;98429.19;5096246;28;20199;-58
2023/08/25 11:12:29;;;;;;;0.00;0.00;;;;;;;34.23;85.73;98418.47;5096046;28;20194;-58
2023/08/25 11:15:17;;;;;;;0.00;0.00;;;;;;;31.81;95.72;98414.97;5093683;28;20337;-58
2023/08/25 11:18:04;;;;;;;0.00;0.00;;;;;;;31.95;100.00;98401.72;5096091;28;20203;-58
2023/08/25 11:20:53;;;;;;;0.00;0.00;;;;;;;31.57;99.18;98395.16;5095960;28;20211;-58
2023/08/25 11:23:41;;;;;;;0.00;0.00;;;;;;;32.61;97.31;98391.50;5095994;28;20241;-58
2023/08/25 11:26:30;;;;;;;0.00;0.00;;;;;;;33.04;91.42;98404.28;5095771;28;20289;-58
2023/08/25 11:29:17;;;;;;;0.00;0.00;;;;;;;33.51;93.34;98404.38;5095895;28;20194;-58
2023/08/25 11:32:06;;;;;;;0.00;0.00;;;;;;;33.99;84.31;98402.44;5095046;28;20309;-58
2023/08/25 11:34:53;;;;;;;0.00;0.00;;;;;;;34.63;81.07;98398.50;5095665;28;20281;-58
2023/08/25 11:37:40;;;;;;;0.00;0.00;;;;;;;33.93;82.02;98397.19;5095506;28;20230;-58
2023/08/25 11:40:27;;;;;;;0.00;0.00;;;;;;;33.13;91.12;98397.22;5095548;28;20186;-58
2023/08/25 11:43:14;;;;;;;0.00;0.00;;;;;;;32.79;93.84;98396.59;5095635;28;20252;-58
2023/08/25 11:46:01;;;;;;;0.00;0.00;;;;;;;31.92;100.00;98396.75;5094160;28;20191;-58
2023/08/25 11:48:50;;;;;;;0.00;0.00;;;;;;;30.53;100.00;98395.63;5095354;28;20202;-58
2023/08/25 11:51:38;;;;;;;0.00;0.00;;;;;;;30.88;100.00;98416.47;5095436;28;20191;-57
2023/08/25 11:54:24;;;;;;;0.00;0.00;;;;;;;29.61;100.00;98415.59;5095316;28;20190;-57
2023/08/25 11:57:11;;;;;;;0.00;0.00;;;;;;;29.79;100.00;98413.78;5095275;28;20241;-58
2023/08/25 11:59:58;;;;;;;0.00;0.00;;;;;;;30.37;100.00;98408.16;5094037;28;20563;-57
2023/08/25 12:02:57;;;;;;;0.00;0.00;;;;;;;28.36;100.00;98403.97;5095230;28;20229;-58
2023/08/25 12:05:45;;;;;;;0.00;0.00;;;;;;;29.02;100.00;98401.09;5095147;28;20202;-57
2023/08/25 12:08:32;;;;;;;0.00;0.00;;;;;;;29.29;100.00;98396.00;5094874;28;20318;-57
2023/08/25 12:11:19;;;;;;;0.00;0.00;;;;;;;29.39;100.00;98392.69;5095055;28;20198;-57
2023/08/25 12:14:06;;;;;;;0.00;0.00;;;;;;;29.74;100.00;98387.22;5095015;28;20194;-57
2023/08/25 12:16:54;;;;;;;0.10;0.10;;;;;;;30.69;100.00;98378.47;5093210;28;20230;-57
2023/08/25 12:19:42;;;;;;;0.10;0.10;;;;;;;30.60;100.00;98368.13;5094794;28;20194;-57
2023/08/25 12:22:30;;;;;;;0.00;0.00;;;;;;;30.19;100.00;98368.19;5094931;28;20277;-57
2023/08/25 12:25:17;;;;;;;0.00;0.00;;;;;;;30.99;100.00;98371.84;5094388;28;20183;-57
2023/08/25 12:28:04;;;;;;;0.00;0.00;;;;;;;31.61;100.00;98369.75;5094629;28;20190;-57
2023/08/25 12:30:51;;;;;;;0.00;0.00;;;;;;;31.22;100.00;98357.97;5093359;28;20205;-57
2023/08/25 12:33:38;;;;;;;0.00;0.00;;;;;;;32.14;100.00;98361.94;5094419;28;20275;-57
2023/08/25 12:36:25;;;;;;;0.00;0.00;;;;;;;30.96;100.00;98366.84;5094269;28;20219;-57
2023/08/25 12:39:14;;;;;;;0.00;0.00;;;;;;;29.44;100.00;98375.59;5094505;28;20678;-57
2023/08/25 12:42:04;;;;;;;0.00;0.00;;;;;;;28.23;100.00;98359.50;5094273;28;20687;-57
2023/08/25 12:44:50;;;;;;;0.00;0.00;;;;;;;27.88;100.00;98362.06;5093117;28;20195;-57
2023/08/25 12:47:37;;;;;;;0.05;0.05;;;;;;;27.64;100.00;98371.13;5093227;28;20213;-57
2023/08/25 12:50:25;;;;;;;0.00;0.00;;;;;;;27.14;100.00;98357.66;5094141;28;20202;-57
2023/08/25 12:53:11;;;;;;;0.10;0.10;;;;;;;27.00;100.00;98369.66;5094197;28;20255;-57
2023/08/25 12:56:00;;;;;;;0.00;0.00;;;;;;;26.79;100.00;98363.56;5094076;28;20249;-57
2023/08/25 12:58:46;;;;;;;0.10;0.10;;;;;;;26.73;100.00;98377.19;5093960;28;20206;-57
2023/08/25 13:01:33;;;;;;;0.00;0.00;;;;;;;26.47;100.00;98370.94;5092723;28;20207;-57
2023/08/25 13:04:20;;;;;;;0.10;0.10;;;;;;;26.33;100.00;98368.47;5094048;28;20358;-57